Time;durP1;ratioP1;P1;durP2;ratioP2;P2;SDS_P1;SDS_P2;PMS_P1;PMS_P2;Temp;Humidity;BMP_temperature;BMP_pressure;BME280_temperature;BME280_humidity;BME280_pressure;Samples;Min_cycle;Max_cycle;Signal;HPM_P1;HPM_P2
2022/04/10 00:02:05;;;;;;;;;;;2.30;99.90;;;;;;5135528;27;19923;-74
2022/04/10 00:04:30;;;;;;;;;;;2.30;99.90;;;;;;5117332;27;19931;-73
2022/04/10 00:06:56;;;;;;;;;;;2.20;99.90;;;;;;5135248;27;19924;-76
2022/04/10 00:09:22;;;;;;;;;;;2.20;99.90;;;;;;5135251;27;19952;-73
2022/04/10 00:11:47;;;;;;;;;;;2.90;99.90;;;;;;5135166;27;19927;-71
2022/04/10 00:14:13;;;;;;;;;;;2.80;99.90;;;;;;5135040;27;19923;-74
2022/04/10 00:16:39;;;;;;;;;;;3.20;99.90;;;;;;5135246;27;19923;-71
2022/04/10 00:19:05;;;;;;;;;;;2.70;99.90;;;;;;5116697;27;19923;-70
2022/04/10 00:21:31;;;;;;;;;;;2.60;99.90;;;;;;5116078;27;20278;-72
2022/04/10 00:23:57;;;;;;;;;;;2.20;99.90;;;;;;5135029;27;20026;-70
2022/04/10 00:26:23;;;;;;;;;;;2.20;99.90;;;;;;5134844;27;19975;-71
2022/04/10 00:28:48;;;;;;;;;;;2.10;99.90;;;;;;5116545;27;19923;-70
2022/04/10 00:31:14;;;;;;;;;;;2.10;99.90;;;;;;5135089;27;19930;-71
2022/04/10 00:33:39;;;;;;;;;;;2.50;99.90;;;;;;5134763;27;19930;-72
2022/04/10 00:36:05;;;;;;;;;;;2.10;99.90;;;;;;5134925;27;19927;-71
2022/04/10 00:38:31;;;;;;;;;;;2.10;99.90;;;;;;5116599;27;19924;-74
2022/04/10 00:40:56;;;;;;;;;;;2.70;99.90;;;;;;5134846;27;19977;-72
2022/04/10 00:43:28;;;;;;;;;;;2.80;99.90;;;;;;5116300;27;19923;-71
2022/04/10 00:45:55;;;;;;;;;;;3.70;99.90;;;;;;5135131;27;19923;-71
2022/04/10 00:48:20;;;;;;;;;;;3.40;99.90;;;;;;5116341;27;19948;-73
2022/04/10 00:51:39;;;;;;;;;;;2.20;99.90;;;;;;5134621;28;20378;-72
2022/04/10 00:53:31;;;;;;;;;;;2.20;99.90;;;;;;5134552;28;20374;-70
2022/04/10 00:55:57;;;;;;;;;;;2.20;99.90;;;;;;5115928;28;19942;-75
2022/04/10 00:58:23;;;;;;;;;;;1.80;99.90;;;;;;5134485;28;19938;-72
2022/04/10 01:00:49;;;;;;;;;;;2.20;99.90;;;;;;5134430;28;19963;-71
2022/04/10 01:03:15;;;;;;;;;;;2.50;99.90;;;;;;5116591;28;19927;-72
2022/04/10 01:05:41;;;;;;;;;;;2.20;99.90;;;;;;5116304;28;20270;-70
2022/04/10 01:08:07;;;;;;;;;;;4.00;99.90;;;;;;5134423;28;19927;-71
2022/04/10 01:10:32;;;;;;;;;;;2.80;99.90;;;;;;5134419;28;19929;-76
2022/04/10 01:12:58;;;;;;;;;;;2.90;99.90;;;;;;5134295;28;19923;-73
2022/04/10 01:15:24;;;;;;;;;;;2.30;99.90;;;;;;5116508;28;19923;-74
2022/04/10 01:17:49;;;;;;;;;;;2.30;99.90;;;;;;5134436;28;19968;-74
2022/04/10 01:20:15;;;;;;;;;;;2.40;99.90;;;;;;5134344;28;19969;-70
2022/04/10 01:22:41;;;;;;;;;;;2.30;99.90;;;;;;5134195;28;19938;-71
2022/04/10 01:25:07;;;;;;;;;;;2.30;99.90;;;;;;5134276;28;19967;-72
2022/04/10 01:27:39;;;;;;;;;;;2.30;99.90;;;;;;5134134;28;19973;-70
2022/04/10 01:30:05;;;;;;;;;;;2.30;99.90;;;;;;5134252;28;20397;-70
2022/04/10 01:32:31;;;;;;;;;;;2.30;99.90;;;;;;5135717;27;20293;-71
2022/04/10 01:34:59;;;;;;;;;;;3.00;99.90;;;;;;5138314;27;19928;-73
2022/04/10 01:37:24;;;;;;;;;;;3.50;99.90;;;;;;5120149;27;19923;-71
2022/04/10 01:39:50;;;;;;;;;;;1.70;99.90;;;;;;5138149;27;19931;-72
2022/04/10 01:42:15;;;;;;;;;;;2.30;99.90;;;;;;5119996;27;19930;-70
2022/04/10 01:44:42;;;;;;;;;;;2.30;99.90;;;;;;5138514;27;19965;-70
2022/04/10 01:47:08;;;;;;;;;;;3.40;99.90;;;;;;5138092;27;19981;-73
2022/04/10 01:49:33;;;;;;;;;;;3.40;99.90;;;;;;5137959;27;19923;-70
2022/04/10 01:51:59;;;;;;;;;;;3.10;99.90;;;;;;5119860;27;20002;-72
2022/04/10 01:54:25;;;;;;;;;;;3.50;99.90;;;;;;5137819;27;19924;-71
2022/04/10 01:56:50;;;;;;;;;;;3.40;99.90;;;;;;5137805;27;19968;-71
2022/04/10 01:59:16;;;;;;;;;;;0.90;99.90;;;;;;5119300;27;19923;-71
2022/04/10 02:01:41;;;;;;;;;;;2.80;99.90;;;;;;5137925;27;20018;-72
2022/04/10 02:04:07;;;;;;;;;;;2.80;99.90;;;;;;5137678;27;19927;-72
2022/04/10 02:06:34;;;;;;;;;;;2.20;99.90;;;;;;5137605;27;19924;-70
2022/04/10 02:08:59;;;;;;;;;;;2.20;99.90;;;;;;5119465;27;19930;-71
2022/04/10 02:11:25;;;;;;;;;;;3.50;99.90;;;;;;5119466;27;19924;-71
2022/04/10 02:13:50;;;;;;;;;;;2.50;99.90;;;;;;5137396;27;19968;-71
2022/04/10 02:16:17;;;;;;;;;;;2.20;99.90;;;;;;5137608;27;19930;-72
2022/04/10 02:18:43;;;;;;;;;;;2.60;99.90;;;;;;5137174;27;20453;-72
2022/04/10 02:21:09;;;;;;;;;;;2.10;99.90;;;;;;5137501;27;20364;-70
2022/04/10 02:23:34;;;;;;;;;;;3.00;99.90;;;;;;5118441;27;20401;-70
2022/04/10 02:26:03;;;;;;;;;;;2.20;99.90;;;;;;5136503;27;20320;-71
2022/04/10 02:28:28;;;;;;;;;;;2.20;99.90;;;;;;5136953;27;19924;-74
2022/04/10 02:30:54;;;;;;;;;;;2.80;99.90;;;;;;5119157;27;20038;-72
2022/04/10 02:33:19;;;;;;;;;;;2.20;99.90;;;;;;5137141;27;19923;-71
2022/04/10 02:35:45;;;;;;;;;;;2.20;99.90;;;;;;5137201;27;19930;-75
2022/04/10 02:38:11;;;;;;;;;;;2.80;99.90;;;;;;5118989;27;19931;-70
2022/04/10 02:40:37;;;;;;;;;;;0.70;99.90;;;;;;5118604;27;19931;-70
2022/04/10 02:43:02;;;;;;;;;;;2.10;99.90;;;;;;5118557;27;19924;-71
2022/04/10 02:45:28;;;;;;;;;;;3.80;99.90;;;;;;5136741;27;19923;-70
2022/04/10 02:47:53;;;;;;;;;;;2.10;99.90;;;;;;5136838;27;19931;-71
2022/04/10 02:50:19;;;;;;;;;;;2.60;99.90;;;;;;5137099;27;19927;-71
2022/04/10 02:52:44;;;;;;;;;;;2.10;99.90;;;;;;5118618;27;19923;-74
2022/04/10 02:55:10;;;;;;;;;;;3.40;99.90;;;;;;5118625;27;19928;-70
2022/04/10 02:57:36;;;;;;;;;;;2.10;99.90;;;;;;5136663;27;19923;-70
2022/04/10 03:00:05;;;;;;;;;;;4.20;99.90;;;;;;5136490;27;19923;-72
2022/04/10 03:02:31;;;;;;;;;;;2.20;99.90;;;;;;5136362;27;20378;-70
2022/04/10 03:04:56;;;;;;;;;;;3.50;99.90;;;;;;5101654;27;19923;-71
2022/04/10 03:07:22;;;;;;;;;;;4.10;99.90;;;;;;5136255;27;19924;-71
2022/04/10 03:09:47;;;;;;;;;;;3.20;99.90;;;;;;5136441;27;20010;-70
2022/04/10 03:12:13;;;;;;;;;;;2.20;99.90;;;;;;5136368;27;20424;-71
2022/04/10 03:14:38;;;;;;;;;;;2.20;99.90;;;;;;5136185;27;20335;-70
2022/04/10 03:17:04;;;;;;;;;;;3.60;99.90;;;;;;5136173;27;20339;-70
2022/04/10 03:19:30;;;;;;;;;;;2.20;99.90;;;;;;5117882;27;19923;-72
2022/04/10 03:21:55;;;;;;;;;;;2.20;99.90;;;;;;5136251;27;20052;-71
2022/04/10 03:24:21;;;;;;;;;;;2.30;99.90;;;;;;5136100;27;19923;-74
2022/04/10 03:26:47;;;;;;;;;;;3.30;99.90;;;;;;5136052;27;20293;-75
2022/04/10 03:29:12;;;;;;;;;;;3.30;99.90;;;;;;5136028;27;19923;-75
2022/04/10 03:31:38;;;;;;;;;;;2.40;99.90;;;;;;5117789;27;20417;-71
2022/04/10 03:34:04;;;;;;;;;;;2.20;99.90;;;;;;5135966;27;20366;-71
2022/04/10 03:36:29;;;;;;;;;;;2.20;99.90;;;;;;5100700;27;19966;-71
2022/04/10 03:38:55;;;;;;;;;;;2.70;99.90;;;;;;5135959;27;19924;-69
2022/04/10 03:41:20;;;;;;;;;;;2.20;99.90;;;;;;5135852;27;20017;-71
2022/04/10 03:43:46;;;;;;;;;;;2.10;99.90;;;;;;5117694;27;19923;-70
2022/04/10 03:46:11;;;;;;;;;;;2.10;99.90;;;;;;5117231;27;20266;-71
2022/04/10 03:48:37;;;;;;;;;;;2.10;99.90;;;;;;5135719;27;20006;-71
2022/04/10 03:51:02;;;;;;;;;;;2.30;99.90;;;;;;5135759;27;19963;-71
2022/04/10 03:53:28;;;;;;;;;;;4.00;99.90;;;;;;5135562;27;19923;-72
2022/04/10 03:55:53;;;;;;;;;;;2.10;99.90;;;;;;5134911;27;19976;-72
2022/04/10 03:58:19;;;;;;;;;;;3.40;99.90;;;;;;5135503;27;19923;-71
2022/04/10 04:00:46;;;;;;;;;;;2.20;99.90;;;;;;5135257;27;20375;-73
2022/04/10 04:03:11;;;;;;;;;;;3.30;99.90;;;;;;5135212;27;19924;-74
2022/04/10 04:05:37;;;;;;;;;;;3.40;99.90;;;;;;5116618;27;19935;-70
2022/04/10 04:08:03;;;;;;;;;;;2.50;99.90;;;;;;5135281;27;20017;-71
2022/04/10 04:10:29;;;;;;;;;;;2.20;99.90;;;;;;5135320;27;19930;-71
2022/04/10 04:12:54;;;;;;;;;;;3.30;99.90;;;;;;5135266;27;20301;-71
2022/04/10 04:15:20;;;;;;;;;;;2.20;99.90;;;;;;5135136;27;20374;-72
2022/04/10 04:17:46;;;;;;;;;;;3.20;99.90;;;;;;5134909;27;19927;-73
2022/04/10 04:20:13;;;;;;;;;;;2.10;99.90;;;;;;5134989;27;19924;-72
2022/04/10 04:22:39;;;;;;;;;;;3.10;99.90;;;;;;5134924;27;19924;-73
2022/04/10 04:25:06;;;;;;;;;;;2.10;99.90;;;;;;5135071;27;19930;-74
2022/04/10 04:27:31;;;;;;;;;;;2.10;99.90;;;;;;5134966;27;19930;-71
2022/04/10 04:29:57;;;;;;;;;;;2.20;99.90;;;;;;5134823;27;19928;-71
2022/04/10 04:32:23;;;;;;;;;;;2.00;99.90;;;;;;5134771;27;20015;-71
2022/04/10 04:34:48;;;;;;;;;;;3.50;99.90;;;;;;5116941;27;19924;-71
2022/04/10 04:37:14;;;;;;;;;;;2.10;99.90;;;;;;5116180;27;20018;-74
2022/04/10 04:39:39;;;;;;;;;;;4.00;99.90;;;;;;5134886;27;19975;-71
2022/04/10 04:42:05;;;;;;;;;;;2.90;99.90;;;;;;5134845;27;19933;-71
2022/04/10 04:44:31;;;;;;;;;;;2.10;99.90;;;;;;5134647;27;19923;-75
2022/04/10 04:46:57;;;;;;;;;;;2.00;99.90;;;;;;5116196;28;19923;-73
2022/04/10 04:49:22;;;;;;;;;;;2.10;99.90;;;;;;5134530;27;19923;-71
2022/04/10 04:51:48;;;;;;;;;;;2.50;99.90;;;;;;5134736;27;19938;-73
2022/04/10 04:54:14;;;;;;;;;;;2.00;99.90;;;;;;5116651;28;20002;-72
2022/04/10 04:56:39;;;;;;;;;;;2.00;99.90;;;;;;5116550;28;20019;-72
2022/04/10 04:59:05;;;;;;;;;;;2.00;99.90;;;;;;5134611;28;19980;-71
2022/04/10 05:01:31;;;;;;;;;;;2.00;99.90;;;;;;5134527;28;20404;-71
2022/04/10 05:03:57;;;;;;;;;;;2.00;99.90;;;;;;5134350;28;19969;-71
2022/04/10 05:06:22;;;;;;;;;;;2.00;99.90;;;;;;5117564;27;19923;-71
2022/04/10 05:08:48;;;;;;;;;;;3.50;99.90;;;;;;5103012;27;19929;-71
2022/04/10 05:11:14;;;;;;;;;;;3.20;99.90;;;;;;5138772;27;19938;-72
2022/04/10 05:13:40;;;;;;;;;;;4.00;99.90;;;;;;5138693;27;20008;-71
2022/04/10 05:16:06;;;;;;;;;;;2.60;99.90;;;;;;5138659;27;19927;-74
2022/04/10 05:18:31;;;;;;;;;;;3.90;99.90;;;;;;5138443;27;19923;-71
2022/04/10 05:20:57;;;;;;;;;;;3.30;99.90;;;;;;5138664;27;20014;-75
2022/04/10 05:23:22;;;;;;;;;;;2.30;99.90;;;;;;5138278;27;19974;-71
2022/04/10 05:25:50;;;;;;;;;;;2.10;99.90;;;;;;5138493;27;19924;-76
2022/04/10 05:28:15;;;;;;;;;;;2.50;99.90;;;;;;5138465;27;20022;-71
2022/04/10 05:30:42;;;;;;;;;;;2.60;99.90;;;;;;5120287;27;19981;-75
2022/04/10 05:33:08;;;;;;;;;;;2.10;99.90;;;;;;5103175;27;19946;-70
2022/04/10 05:35:34;;;;;;;;;;;4.00;99.90;;;;;;5120072;27;19924;-71
2022/04/10 05:37:59;;;;;;;;;;;3.00;99.90;;;;;;5138336;27;19923;-73
2022/04/10 05:40:25;;;;;;;;;;;2.00;99.90;;;;;;5138360;27;19928;-72
2022/04/10 05:42:50;;;;;;;;;;;2.80;99.90;;;;;;5138343;27;20439;-73
2022/04/10 05:45:16;;;;;;;;;;;2.50;99.90;;;;;;5138226;27;19930;-71
2022/04/10 05:47:43;;;;;;;;;;;2.00;99.90;;;;;;5119751;27;20370;-73
2022/04/10 05:50:09;;;;;;;;;;;2.10;99.90;;;;;;5102738;27;19924;-73
2022/04/10 05:52:43;;;;;;;;;;;2.10;99.90;;;;;;5138171;27;19927;-71
2022/04/10 05:55:10;;;;;;;;;;;2.20;99.90;;;;;;5138174;27;19923;-71
2022/04/10 05:57:35;;;;;;;;;;;2.20;99.90;;;;;;5119244;27;19975;-74
2022/04/10 06:00:02;;;;;;;;;;;3.30;99.90;;;;;;5119349;27;20397;-74
2022/04/10 06:02:28;;;;;;;;;;;2.50;99.90;;;;;;5137787;27;19927;-71
2022/04/10 06:04:54;;;;;;;;;;;2.40;99.90;;;;;;5137597;27;19931;-71
2022/04/10 06:07:19;;;;;;;;;;;4.00;99.90;;;;;;5119519;27;19948;-71
2022/04/10 06:09:45;;;;;;;;;;;2.60;99.90;;;;;;5137956;27;19963;-73
2022/04/10 06:12:10;;;;;;;;;;;2.60;99.90;;;;;;5118888;27;20290;-74
2022/04/10 06:14:36;;;;;;;;;;;2.70;99.90;;;;;;5136706;27;20281;-70
2022/04/10 06:17:02;;;;;;;;;;;2.80;99.90;;;;;;5137216;27;19927;-71
2022/04/10 06:19:27;;;;;;;;;;;2.80;99.90;;;;;;5136534;27;19927;-75
2022/04/10 06:21:53;;;;;;;;;;;2.90;99.90;;;;;;5137112;27;19937;-71
2022/04/10 06:24:21;;;;;;;;;;;2.90;99.90;;;;;;5119189;27;19930;-71
2022/04/10 06:26:49;;;;;;;;;;;3.10;99.90;;;;;;5118430;27;19924;-74
2022/04/10 06:29:15;;;;;;;;;;;3.80;99.90;;;;;;5137175;27;19969;-72
2022/04/10 06:31:40;;;;;;;;;;;3.70;99.90;;;;;;5119034;27;19927;-71
2022/04/10 06:34:06;;;;;;;;;;;3.60;99.90;;;;;;5101852;27;19946;-74
2022/04/10 06:36:31;;;;;;;;;;;3.20;99.90;;;;;;5137484;27;19948;-71
2022/04/10 06:38:57;;;;;;;;;;;4.10;99.90;;;;;;5137211;27;19927;-71
2022/04/10 06:41:23;;;;;;;;;;;4.40;99.90;;;;;;5137069;27;19931;-75
2022/04/10 06:43:48;;;;;;;;;;;4.20;99.90;;;;;;5136774;27;19923;-75
2022/04/10 06:46:14;;;;;;;;;;;3.30;99.90;;;;;;5136870;27;19976;-71
2022/04/10 06:48:39;;;;;;;;;;;5.10;99.90;;;;;;5136628;27;19924;-71
2022/04/10 06:51:05;;;;;;;;;;;3.50;99.90;;;;;;5136625;27;21542;-71
2022/04/10 06:53:30;;;;;;;;;;;4.80;99.90;;;;;;5136845;27;19923;-74
2022/04/10 06:55:56;;;;;;;;;;;4.10;99.90;;;;;;5136719;27;19924;-72
2022/04/10 06:58:22;;;;;;;;;;;4.30;99.90;;;;;;5136666;27;19923;-72
2022/04/10 07:00:48;;;;;;;;;;;5.50;99.90;;;;;;5118471;27;20374;-75
2022/04/10 07:03:14;;;;;;;;;;;3.80;99.90;;;;;;5118318;27;20030;-71
2022/04/10 07:05:40;;;;;;;;;;;5.20;99.90;;;;;;5136338;27;19924;-71
2022/04/10 07:08:06;;;;;;;;;;;3.80;99.90;;;;;;5136603;27;20271;-72
2022/04/10 07:10:32;;;;;;;;;;;3.70;99.90;;;;;;5118549;27;19923;-73
2022/04/10 07:12:57;;;;;;;;;;;3.60;99.90;;;;;;5136351;27;20293;-71
2022/04/10 07:15:23;;;;;;;;;;;3.60;99.90;;;;;;5117923;27;19924;-71
2022/04/10 07:17:48;;;;;;;;;;;3.50;99.90;;;;;;5136288;27;19982;-73
2022/04/10 07:20:14;;;;;;;;;;;4.00;99.90;;;;;;5117995;27;20406;-71
2022/04/10 07:25:24;;;;;;;;;;;3.60;99.90;;;;;;5136216;27;20014;-71
2022/04/10 07:27:49;;;;;;;;;;;3.60;99.90;;;;;;5117718;27;20015;-71
2022/04/10 07:30:15;;;;;;;;;;;5.60;99.90;;;;;;5135293;27;19923;-74
2022/04/10 07:32:40;;;;;;;;;;;4.10;99.90;;;;;;5100787;27;19923;-74
2022/04/10 07:35:06;;;;;;;;;;;3.80;99.90;;;;;;5116951;27;19927;-71
2022/04/10 07:37:32;;;;;;;;;;;3.80;99.90;;;;;;5135998;27;19975;-70
2022/04/10 07:39:57;;;;;;;;;;;3.90;99.90;;;;;;5135867;27;19927;-73
2022/04/10 07:42:23;;;;;;;;;;;4.80;99.90;;;;;;5135558;27;19923;-71
2022/04/10 07:44:48;;;;;;;;;;;4.00;99.90;;;;;;5135876;27;19924;-70
2022/04/10 07:47:26;;;;;;;;;;;4.10;99.90;;;;;;5135584;27;20022;-71
2022/04/10 07:49:53;;;;;;;;;;;4.10;99.90;;;;;;5116954;27;20406;-73
2022/04/10 07:52:19;;;;;;;;;;;4.20;99.90;;;;;;5135812;27;19923;-71
2022/04/10 07:54:44;;;;;;;;;;;5.50;99.90;;;;;;5135620;27;20025;-71
2022/04/10 07:57:10;;;;;;;;;;;4.40;99.90;;;;;;5135602;27;20020;-72
2022/04/10 07:59:36;;;;;;;;;;;5.40;99.90;;;;;;5117524;27;19988;-75
2022/04/10 08:02:02;;;;;;;;;;;6.30;99.90;;;;;;5135251;27;20451;-71
2022/04/10 08:04:28;;;;;;;;;;;4.70;99.90;;;;;;5117242;27;20027;-73
2022/04/10 08:06:54;;;;;;;;;;;4.70;99.90;;;;;;5117096;27;19924;-71
2022/04/10 08:09:20;;;;;;;;;;;5.70;99.90;;;;;;5135134;27;19931;-75
2022/04/10 08:11:45;;;;;;;;;;;4.60;99.90;;;;;;5135242;27;19923;-71
2022/04/10 08:14:11;;;;;;;;;;;5.10;99.90;;;;;;5117181;27;20013;-74
2022/04/10 08:16:36;;;;;;;;;;;5.50;99.90;;;;;;5117013;27;20275;-71
2022/04/10 08:19:02;;;;;;;;;;;6.00;99.90;;;;;;5116967;27;19974;-71
2022/04/10 08:21:27;;;;;;;;;;;4.60;99.90;;;;;;5116699;27;20366;-71
2022/04/10 08:23:53;;;;;;;;;;;4.80;99.90;;;;;;5135202;27;19929;-71
2022/04/10 08:26:19;;;;;;;;;;;5.30;99.90;;;;;;5134966;27;19970;-72
2022/04/10 08:28:44;;;;;;;;;;;5.00;99.90;;;;;;5135083;27;19923;-72
2022/04/10 08:31:10;;;;;;;;;;;5.10;99.90;;;;;;5134880;27;20002;-73
2022/04/10 08:33:35;;;;;;;;;;;5.50;99.90;;;;;;5134811;27;19930;-73
2022/04/10 08:36:01;;;;;;;;;;;5.80;99.90;;;;;;5134833;27;19923;-71
2022/04/10 08:38:27;;;;;;;;;;;5.50;99.90;;;;;;5116026;27;19997;-72
2022/04/10 08:40:56;;;;;;;;;;;5.50;99.90;;;;;;5134663;27;19924;-72
2022/04/10 08:43:22;;;;;;;;;;;6.30;99.90;;;;;;5133290;27;19931;-72
2022/04/10 08:45:48;;;;;;;;;;;5.70;99.90;;;;;;5134752;27;20394;-71
2022/04/10 08:48:14;;;;;;;;;;;6.70;99.90;;;;;;5134568;27;19924;-71
2022/04/10 08:50:40;;;;;;;;;;;5.70;99.90;;;;;;5134587;27;19924;-72
2022/04/10 08:53:06;;;;;;;;;;;5.80;99.90;;;;;;5116009;28;20018;-72
2022/04/10 08:55:31;;;;;;;;;;;5.90;99.90;;;;;;5133425;28;20417;-71
2022/04/10 08:57:57;;;;;;;;;;;6.10;99.90;;;;;;5099513;28;19927;-71
2022/04/10 09:00:23;;;;;;;;;;;6.20;99.90;;;;;;5134627;28;19923;-75
2022/04/10 09:02:50;;;;;;;;;;;6.20;99.90;;;;;;5134569;28;19954;-71
2022/04/10 09:05:19;;;;;;;;;;;6.40;99.90;;;;;;5134398;28;19924;-75
2022/04/10 09:08:03;;;;;;;;;;;6.30;99.90;;;;;;5133285;28;19923;-75
2022/04/10 09:10:29;;;;;;;;;;;6.40;99.90;;;;;;5116525;28;20339;-75
2022/04/10 09:12:54;;;;;;;;;;;6.40;99.90;;;;;;5134501;28;19923;-72
2022/04/10 09:15:20;;;;;;;;;;;7.30;99.90;;;;;;5134295;28;19923;-72
2022/04/10 09:17:54;;;;;;;;;;;6.50;99.90;;;;;;5134470;28;19968;-72
2022/04/10 09:20:20;;;;;;;;;;;6.60;99.90;;;;;;5115947;28;20010;-75
2022/04/10 09:22:46;;;;;;;;;;;6.70;99.90;;;;;;5146435;27;19998;-72
2022/04/10 09:25:12;;;;;;;;;;;6.80;99.90;;;;;;5118396;27;19923;-72
2022/04/10 09:27:44;;;;;;;;;;;7.00;99.90;;;;;;5155040;27;19927;-72
2022/04/10 09:30:13;;;;;;;;;;;7.10;99.90;;;;;;5141253;27;19930;-71
2022/04/10 09:32:43;;;;;;;;;;;7.20;99.90;;;;;;5115840;28;19924;-72
2022/04/10 09:35:10;;;;;;;;;;;7.20;99.90;;;;;;5099638;28;19931;-73
2022/04/10 09:37:46;;;;;;;;;;;7.10;99.90;;;;;;5134208;28;19924;-75
2022/04/10 09:40:31;;;;;;;;;;;7.00;99.90;;;;;;5125653;27;19924;-72
2022/04/10 09:43:01;;;;;;;;;;;6.90;99.90;;;;;;5133853;28;19924;-75
2022/04/10 09:45:40;;;;;;;;;;;6.90;99.90;;;;;;5133834;28;19927;-74
2022/04/10 09:48:19;;;;;;;;;;;6.90;99.90;;;;;;5133896;28;19924;-75
2022/04/10 09:50:46;;;;;;;;;;;7.10;99.90;;;;;;5137981;27;19923;-72
2022/04/10 09:53:11;;;;;;;;;;;7.30;99.90;;;;;;5155299;27;19923;-72
2022/04/10 09:55:38;;;;;;;;;;;7.40;99.90;;;;;;5151004;27;20386;-72
2022/04/10 09:58:09;;;;;;;;;;;7.50;99.90;;;;;;5118812;27;19930;-71
2022/04/10 10:00:36;;;;;;;;;;;6.60;99.90;;;;;;5137713;27;19971;-71
2022/04/10 10:03:02;;;;;;;;;;;7.70;99.90;;;;;;5119562;27;19924;-71
2022/04/10 10:05:29;;;;;;;;;;;7.80;99.90;;;;;;5155528;27;19927;-71
2022/04/10 10:07:55;;;;;;;;;;;7.90;99.90;;;;;;5144358;27;20032;-72
2022/04/10 10:10:22;;;;;;;;;;;7.90;99.90;;;;;;5137349;27;19923;-74
2022/04/10 10:12:48;;;;;;;;;;;8.60;99.90;;;;;;5119427;27;20060;-73
2022/04/10 10:15:14;;;;;;;;;;;8.00;99.90;;;;;;5135770;27;19922;-72
2022/04/10 10:17:40;;;;;;;;;;;8.00;99.90;;;;;;5152313;27;19923;-72
2022/04/10 10:20:06;;;;;;;;;;;8.10;99.90;;;;;;5137252;27;19950;-72
2022/04/10 10:22:32;;;;;;;;;;;8.20;99.90;;;;;;5128413;27;19977;-73
2022/04/10 10:25:00;;;;;;;;;;;8.20;99.90;;;;;;5116472;28;19928;-72
2022/04/10 10:27:28;;;;;;;;;;;8.30;99.90;;;;;;5116237;28;19928;-76
2022/04/10 10:30:03;;;;;;;;;;;8.20;99.90;;;;;;5116512;28;20019;-76
2022/04/10 10:32:39;;;;;;;;;;;8.20;99.90;;;;;;5116216;28;19927;-74
2022/04/10 10:35:06;;;;;;;;;;;8.00;99.90;;;;;;5116426;28;19924;-72
2022/04/10 10:37:45;;;;;;;;;;;7.90;99.90;;;;;;5116070;28;19924;-72
2022/04/10 10:40:16;;;;;;;;;;;7.70;99.90;;;;;;5116309;28;19931;-72
2022/04/10 10:42:43;;;;;;;;;;;7.70;99.90;;;;;;5098042;28;19924;-73
2022/04/10 10:45:09;;;;;;;;;;;7.80;99.90;;;;;;5116274;28;19927;-72
2022/04/10 10:47:35;;;;;;;;;;;8.00;99.90;;;;;;5097914;28;19924;-72
2022/04/10 10:50:20;;;;;;;;;;;8.30;99.90;;;;;;5115891;28;19930;-71
2022/04/10 10:53:03;;;;;;;;;;;8.30;99.90;;;;;;5115696;28;20010;-72
2022/04/10 10:55:42;;;;;;;;;;;8.50;99.90;;;;;;5115967;28;20282;-72
2022/04/10 10:58:08;;;;;;;;;;;8.50;99.90;;;;;;5116039;28;20030;-72
2022/04/10 11:00:37;;;;;;;;;;;8.20;99.90;;;;;;5097685;28;20406;-71
2022/04/10 11:03:07;;;;;;;;;;;8.10;99.90;;;;;;5096963;28;19928;-72
2022/04/10 11:05:35;;;;;;;;;;;8.20;99.90;;;;;;5097575;28;20026;-71
2022/04/10 11:08:02;;;;;;;;;;;8.30;99.90;;;;;;5097542;28;19924;-72
2022/04/10 11:10:32;;;;;;;;;;;8.40;99.90;;;;;;5115534;28;19928;-75
2022/04/10 11:13:00;;;;;;;;;;;8.30;99.90;;;;;;5115491;28;20338;-73
2022/04/10 11:15:31;;;;;;;;;;;8.40;99.90;;;;;;5115399;28;20322;-72
2022/04/10 11:18:02;;;;;;;;;;;8.50;99.90;;;;;;5115739;28;20322;-75
2022/04/10 11:20:28;;;;;;;;;;;8.60;99.90;;;;;;5115424;28;19927;-72
2022/04/10 11:22:53;;;;;;;;;;;8.60;99.90;;;;;;5126735;27;20409;-72
2022/04/10 11:25:27;;;;;;;;;;;8.80;99.90;;;;;;5135916;27;19927;-74
2022/04/10 11:28:01;;;;;;;;;;;8.40;99.90;;;;;;5135612;27;19923;-72
2022/04/10 11:30:31;;;;;;;;;;;7.00;99.90;;;;;;5135672;27;19929;-75
2022/04/10 11:32:57;;;;;;;;;;;8.50;99.90;;;;;;5100218;27;19929;-72
2022/04/10 11:35:27;;;;;;;;;;;8.60;99.90;;;;;;5117757;27;20374;-72
2022/04/10 11:37:54;;;;;;;;;;;8.70;99.90;;;;;;5117354;27;19969;-74
2022/04/10 11:40:26;;;;;;;;;;;9.60;99.90;;;;;;5135662;27;19923;-75
2022/04/10 11:42:54;;;;;;;;;;;9.00;99.90;;;;;;5135290;27;19924;-75
2022/04/10 11:45:20;;;;;;;;;;;9.10;99.90;;;;;;5117679;27;20027;-75
2022/04/10 11:47:46;;;;;;;;;;;9.30;99.90;;;;;;5135566;27;19924;-73
2022/04/10 11:50:13;;;;;;;;;;;9.40;99.90;;;;;;5135516;27;20023;-72
2022/04/10 11:52:39;;;;;;;;;;;9.20;99.90;;;;;;5135348;27;19965;-72
2022/04/10 11:55:05;;;;;;;;;;;9.10;99.90;;;;;;5135343;27;20022;-72
2022/04/10 11:57:31;;;;;;;;;;;9.10;99.90;;;;;;5135225;27;19967;-72
2022/04/10 11:59:57;;;;;;;;;;;9.20;99.90;;;;;;5135439;27;20014;-72
2022/04/10 12:02:23;;;;;;;;;;;9.30;99.90;;;;;;5135412;27;20031;-72
2022/04/10 12:04:50;;;;;;;;;;;9.60;99.90;;;;;;5135184;27;19923;-72
2022/04/10 12:07:17;;;;;;;;;;;9.20;99.90;;;;;;5135094;27;19933;-72
2022/04/10 12:09:44;;;;;;;;;;;9.00;99.90;;;;;;5135137;27;19930;-74
2022/04/10 12:12:10;;;;;;;;;;;9.00;99.90;;;;;;5134889;27;19923;-75
2022/04/10 12:14:36;;;;;;;;;;;9.10;99.90;;;;;;5116529;27;19930;-72
2022/04/10 12:17:01;;;;;;;;;;;9.20;99.90;;;;;;5116209;27;19981;-73
2022/04/10 12:19:37;;;;;;;;;;;9.10;99.90;;;;;;5134942;27;19924;-73
2022/04/10 12:22:03;;;;;;;;;;;9.10;99.90;;;;;;5134527;27;19924;-75
2022/04/10 12:24:29;;;;;;;;;;;9.10;99.90;;;;;;5116777;27;19924;-73
2022/04/10 12:26:56;;;;;;;;;;;9.00;99.90;;;;;;5115868;27;19930;-75
2022/04/10 12:29:21;;;;;;;;;;;8.90;99.90;;;;;;5134892;27;19927;-73
2022/04/10 12:31:48;;;;;;;;;;;8.90;99.90;;;;;;5134546;27;19930;-74
2022/04/10 12:34:14;;;;;;;;;;;8.80;99.90;;;;;;5134770;27;19923;-71
2022/04/10 12:36:49;;;;;;;;;;;8.80;99.90;;;;;;5148311;27;20006;-71
2022/04/10 12:39:22;;;;;;;;;;;8.80;99.90;;;;;;5153291;27;19923;-72
2022/04/10 12:41:56;;;;;;;;;;;8.90;99.90;;;;;;5134563;27;20145;-74
2022/04/10 12:44:23;;;;;;;;;;;9.00;99.90;;;;;;5127704;27;20396;-75
2022/04/10 12:46:48;;;;;;;;;;;9.00;99.90;;;;;;5154996;27;20377;-75
2022/04/10 12:49:15;;;;;;;;;;;9.10;99.90;;;;;;5134679;27;19949;-76
2022/04/10 12:51:48;;;;;;;;;;;9.00;99.90;;;;;;5154419;27;19968;-72
2022/04/10 12:54:14;;;;;;;;;;;8.90;99.90;;;;;;5124266;27;19924;-72
2022/04/10 12:56:39;;;;;;;;;;;8.90;99.90;;;;;;5142078;27;19923;-72
2022/04/10 12:59:05;;;;;;;;;;;9.00;99.90;;;;;;5155203;27;19932;-76
2022/04/10 13:01:31;;;;;;;;;;;9.20;99.90;;;;;;5133575;27;19938;-73
2022/04/10 13:03:58;;;;;;;;;;;9.30;99.90;;;;;;5155316;27;19923;-77
2022/04/10 13:06:27;;;;;;;;;;;9.30;99.90;;;;;;5136950;27;19930;-75
2022/04/10 13:09:08;;;;;;;;;;;9.20;99.90;;;;;;5154752;27;19930;-74
2022/04/10 13:11:37;;;;;;;;;;;10.20;99.90;;;;;;5155330;27;19923;-73
2022/04/10 13:14:10;;;;;;;;;;;9.40;99.90;;;;;;5155225;27;19923;-72
2022/04/10 13:16:40;;;;;;;;;;;9.40;99.90;;;;;;5155093;27;19923;-72
2022/04/10 13:19:07;;;;;;;;;;;9.30;99.90;;;;;;5155119;27;19927;-74
2022/04/10 13:21:34;;;;;;;;;;;9.30;99.90;;;;;;5153977;27;20328;-73
2022/04/10 13:23:59;;;;;;;;;;;9.40;99.90;;;;;;5154712;27;19927;-72
2022/04/10 13:26:26;;;;;;;;;;;9.50;99.90;;;;;;5155144;27;20283;-73
2022/04/10 13:28:51;;;;;;;;;;;9.70;99.90;;;;;;5138450;27;19971;-74
2022/04/10 13:31:17;;;;;;;;;;;9.90;99.90;;;;;;5140835;27;19923;-73
2022/04/10 13:33:43;;;;;;;;;;;10.80;99.90;;;;;;5159003;27;20301;-75
2022/04/10 13:36:08;;;;;;;;;;;10.00;99.90;;;;;;5158592;27;20332;-74
2022/04/10 13:38:34;;;;;;;;;;;10.10;99.90;;;;;;5159183;27;19937;-72
2022/04/10 13:40:59;;;;;;;;;;;10.10;99.90;;;;;;5159046;27;20294;-72
2022/04/10 13:43:25;;;;;;;;;;;10.20;99.90;;;;;;5158860;27;19923;-72
2022/04/10 13:45:51;;;;;;;;;;;10.10;99.90;;;;;;5158574;27;19922;-74
2022/04/10 13:48:16;;;;;;;;;;;9.90;99.90;;;;;;5158630;27;19923;-75
2022/04/10 13:50:42;;;;;;;;;;;9.90;99.90;;;;;;5158545;27;19923;-73
2022/04/10 13:53:08;;;;;;;;;;;9.90;99.90;;;;;;5158385;27;19934;-73
2022/04/10 13:55:33;;;;;;;;;;;9.80;99.90;;;;;;5158737;27;19937;-72
2022/04/10 13:57:59;;;;;;;;;;;9.70;99.90;;;;;;5158747;27;19923;-75
2022/04/10 14:00:24;;;;;;;;;;;9.60;99.90;;;;;;5158659;27;19923;-73
2022/04/10 14:02:50;;;;;;;;;;;9.50;99.90;;;;;;5140335;27;20393;-72
2022/04/10 14:05:15;;;;;;;;;;;9.50;99.90;;;;;;5157354;27;19927;-73
2022/04/10 14:07:41;;;;;;;;;;;9.50;99.90;;;;;;5147104;27;19927;-74
2022/04/10 14:10:06;;;;;;;;;;;9.60;99.90;;;;;;5138482;27;19977;-71
2022/04/10 14:12:32;;;;;;;;;;;9.60;99.90;;;;;;5102151;27;19924;-72
2022/04/10 14:14:58;;;;;;;;;;;9.70;99.90;;;;;;5137894;27;19927;-72
2022/04/10 14:17:23;;;;;;;;;;;9.80;99.90;;;;;;5137384;27;19966;-74
2022/04/10 14:19:49;;;;;;;;;;;9.80;99.90;;;;;;5102177;27;19968;-73
2022/04/10 14:22:14;;;;;;;;;;;9.90;99.90;;;;;;5131484;27;19931;-71
2022/04/10 14:24:40;;;;;;;;;;;10.00;99.90;;;;;;5094575;28;19963;-72
2022/04/10 14:27:06;;;;;;;;;;;11.20;99.90;;;;;;5098149;28;19928;-72
2022/04/10 14:29:35;;;;;;;;;;;10.20;99.90;;;;;;5116594;28;19931;-72